createdAt,value
2018-12-03T00:01:38.872Z,8.60
2018-12-03T00:04:11.351Z,9.63
2018-12-03T00:06:38.692Z,9.63
2018-12-03T00:09:07.805Z,9.00
2018-12-03T00:11:35.548Z,10.90
2018-12-03T00:14:02.917Z,11.28
2018-12-03T00:16:30.292Z,11.40
2018-12-03T00:18:57.648Z,11.50
2018-12-03T00:21:25.022Z,12.33
2018-12-03T00:23:52.429Z,11.75
2018-12-03T00:26:19.830Z,12.70
2018-12-03T00:28:47.334Z,11.35
2018-12-03T00:31:14.715Z,13.75
2018-12-03T00:33:42.075Z,12.88
2018-12-03T00:36:09.453Z,12.00
2018-12-03T00:38:37.504Z,10.63
2018-12-03T00:41:05.119Z,12.15
2018-12-03T00:43:32.445Z,11.90
2018-12-03T00:46:00.462Z,13.32
2018-12-03T00:48:27.877Z,15.10
2018-12-03T00:50:55.256Z,12.95
2018-12-03T00:53:22.652Z,12.53
2018-12-03T00:55:50.037Z,11.93
2018-12-03T00:58:17.956Z,11.38
2018-12-03T01:00:45.347Z,13.40
2018-12-03T01:03:12.756Z,11.97
2018-12-03T01:05:40.120Z,13.70
2018-12-03T01:08:08.092Z,13.03
2018-12-03T01:10:35.465Z,14.43
2018-12-03T01:13:02.892Z,14.05
2018-12-03T01:15:30.397Z,14.18
2018-12-03T01:17:57.798Z,13.60
2018-12-03T01:20:25.152Z,13.75
2018-12-03T01:22:52.444Z,13.85
2018-12-03T01:25:19.748Z,13.72
2018-12-03T01:27:47.139Z,14.43
2018-12-03T01:30:14.581Z,14.85
2018-12-03T01:32:42.039Z,13.00
2018-12-03T01:35:09.763Z,12.53
2018-12-03T01:37:37.273Z,12.93
2018-12-03T01:40:06.458Z,11.75
2018-12-03T01:42:33.842Z,12.18
2018-12-03T01:45:01.157Z,11.73
2018-12-03T01:47:28.518Z,10.85
2018-12-03T01:49:56.202Z,12.03
2018-12-03T01:52:23.543Z,11.57
2018-12-03T01:54:50.906Z,10.85
2018-12-03T01:57:18.664Z,11.12
2018-12-03T01:59:50.435Z,11.45
2018-12-03T02:02:17.875Z,10.90
2018-12-03T02:04:45.172Z,12.03
2018-12-03T02:07:12.474Z,12.50
2018-12-03T02:09:39.795Z,12.47
2018-12-03T02:12:07.093Z,11.15
2018-12-03T02:14:34.465Z,10.68
2018-12-03T02:17:01.786Z,10.15
2018-12-03T02:19:29.176Z,8.30
2018-12-03T02:21:56.496Z,7.03
2018-12-03T02:24:23.783Z,6.62
2018-12-03T02:26:51.102Z,4.90
2018-12-03T02:29:18.431Z,5.00
2018-12-03T02:31:45.740Z,5.85
2018-12-03T02:34:13.032Z,6.25
2018-12-03T02:36:40.357Z,6.47
2018-12-03T02:39:08.068Z,6.97
2018-12-03T02:41:35.428Z,6.75
2018-12-03T02:44:02.757Z,7.10
2018-12-03T02:46:30.133Z,7.85
2018-12-03T02:48:57.454Z,6.95
2018-12-03T02:51:24.781Z,7.22
2018-12-03T02:53:52.095Z,8.30
2018-12-03T02:56:19.462Z,7.40
2018-12-03T02:58:46.778Z,8.50
2018-12-03T03:01:14.177Z,7.95
2018-12-03T03:03:41.499Z,8.30
2018-12-03T03:06:08.972Z,8.18
2018-12-03T03:08:36.308Z,9.50
2018-12-03T03:11:03.899Z,9.43
2018-12-03T03:13:31.244Z,10.48
2018-12-03T03:15:58.654Z,10.90
2018-12-03T03:18:26.082Z,9.35
2018-12-03T03:20:53.545Z,9.48
2018-12-03T03:23:20.877Z,10.40
2018-12-03T03:25:48.123Z,10.75
2018-12-03T03:28:15.452Z,9.70
2018-12-03T03:30:43.099Z,8.85
2018-12-03T03:33:10.440Z,9.98
2018-12-03T03:35:37.856Z,9.30
2018-12-03T03:38:05.457Z,9.75
2018-12-03T03:40:32.805Z,9.80
2018-12-03T03:43:00.103Z,10.20
2018-12-03T03:45:27.482Z,10.25
2018-12-03T03:47:54.805Z,10.38
2018-12-03T03:50:22.133Z,9.65
2018-12-03T03:52:49.640Z,9.18
2018-12-03T03:55:17.108Z,10.98
2018-12-03T03:57:44.469Z,8.73
2018-12-03T04:00:13.207Z,11.83
2018-12-03T04:02:40.525Z,9.33
2018-12-03T04:05:09.003Z,8.70
2018-12-03T04:07:41.279Z,8.85
2018-12-03T04:10:09.836Z,11.05
2018-12-03T04:12:37.141Z,10.45
2018-12-03T04:15:05.224Z,11.73
2018-12-03T04:17:36.710Z,11.88
2018-12-03T04:20:05.417Z,10.38
2018-12-03T04:22:32.792Z,10.25
2018-12-03T04:25:00.078Z,10.68
2018-12-03T04:27:27.444Z,10.48
2018-12-03T04:29:54.830Z,10.85
2018-12-03T04:32:22.193Z,11.10
2018-12-03T04:34:49.561Z,11.20
2018-12-03T04:37:16.876Z,10.68
2018-12-03T04:39:44.193Z,9.73
2018-12-03T04:42:11.483Z,7.95
2018-12-03T04:44:38.817Z,8.55
2018-12-03T04:47:06.172Z,8.70
2018-12-03T04:49:33.484Z,7.30
2018-12-03T04:52:00.792Z,8.20
2018-12-03T04:54:28.225Z,6.35
2018-12-03T04:56:55.577Z,5.90
2018-12-03T04:59:22.885Z,3.98
2018-12-03T05:01:50.297Z,3.80
2018-12-03T05:04:17.696Z,3.30
2018-12-03T05:06:45.025Z,2.95
2018-12-03T05:09:12.450Z,3.40
2018-12-03T05:11:39.816Z,2.90
2018-12-03T05:14:07.117Z,2.27
2018-12-03T05:16:34.522Z,3.02
2018-12-03T05:19:01.825Z,2.40
2018-12-03T05:21:29.128Z,2.12
2018-12-03T05:23:56.447Z,2.10
2018-12-03T05:26:23.740Z,2.35
2018-12-03T05:28:51.961Z,1.80
2018-12-03T05:31:19.300Z,1.60
2018-12-03T05:33:46.588Z,1.70
2018-12-03T05:36:14.283Z,2.00
2018-12-03T05:38:41.611Z,2.25
2018-12-03T05:41:09.015Z,3.60
2018-12-03T05:43:36.348Z,3.37
2018-12-03T05:46:03.789Z,2.90
2018-12-03T05:48:31.159Z,2.40
2018-12-03T05:50:58.536Z,2.47
2018-12-03T05:53:25.874Z,2.62
2018-12-03T05:55:53.427Z,2.30
2018-12-03T05:58:20.783Z,2.90
2018-12-03T06:00:48.112Z,2.80
2018-12-03T06:03:16.248Z,3.08
2018-12-03T06:05:43.571Z,3.90
2018-12-03T06:08:10.874Z,3.77
2018-12-03T06:10:38.279Z,5.00
2018-12-03T06:13:05.586Z,5.40
2018-12-03T06:15:32.961Z,5.15
2018-12-03T06:18:00.323Z,6.20
2018-12-03T06:20:27.676Z,6.75
2018-12-03T06:22:55.087Z,7.03
2018-12-03T06:25:25.373Z,8.10
2018-12-03T06:27:52.692Z,8.05
2018-12-03T06:30:21.250Z,7.58
2018-12-03T06:32:48.597Z,8.23
2018-12-03T06:35:16.271Z,7.60
2018-12-03T06:37:43.601Z,8.50
2018-12-03T06:40:11.805Z,9.15
2018-12-03T06:42:39.117Z,10.00
2018-12-03T06:45:07.664Z,9.40
2018-12-03T06:47:35.017Z,10.05
2018-12-03T06:50:02.425Z,10.63
2018-12-03T06:52:29.832Z,10.95
2018-12-03T06:54:57.165Z,11.95
2018-12-03T06:57:24.568Z,11.90
2018-12-03T06:59:56.415Z,11.45
2018-12-03T07:02:23.820Z,12.15
2018-12-03T07:04:51.193Z,11.00
2018-12-03T07:07:18.490Z,12.40
2018-12-03T07:09:45.836Z,13.20
2018-12-03T07:12:13.156Z,11.55
2018-12-03T07:14:40.468Z,13.03
2018-12-03T07:17:07.956Z,9.50
2018-12-03T07:19:35.268Z,11.73
2018-12-03T07:22:02.688Z,9.60
2018-12-03T07:24:30.064Z,9.58
2018-12-03T07:26:57.401Z,9.38
2018-12-03T07:29:24.706Z,10.23
2018-12-03T07:31:52.098Z,9.80
2018-12-03T07:34:19.401Z,9.53
2018-12-03T07:36:46.817Z,11.25
2018-12-03T07:39:14.212Z,10.53
2018-12-03T07:41:41.512Z,8.38
2018-12-03T07:44:08.812Z,8.80
2018-12-03T07:46:36.120Z,11.22
2018-12-03T07:49:03.495Z,8.70
2018-12-03T07:51:30.836Z,9.55
2018-12-03T07:53:58.181Z,9.75
2018-12-03T07:56:25.859Z,9.13
2018-12-03T07:58:53.141Z,9.35
2018-12-03T08:01:20.464Z,8.80
2018-12-03T08:03:47.820Z,8.95
2018-12-03T08:06:15.150Z,6.33
2018-12-03T08:08:43.058Z,7.25
2018-12-03T08:11:10.368Z,6.83
2018-12-03T08:13:38.350Z,6.30
2018-12-03T08:16:05.723Z,7.72
2018-12-03T08:18:33.023Z,6.83
2018-12-03T08:21:01.375Z,6.83
2018-12-03T08:23:30.712Z,6.15
2018-12-03T08:25:58.293Z,6.35
2018-12-03T08:28:25.979Z,6.67
2018-12-03T08:30:53.227Z,6.92
2018-12-03T08:33:20.543Z,6.12
2018-12-03T08:35:47.823Z,6.90
2018-12-03T08:38:15.131Z,6.75
2018-12-03T08:40:42.441Z,8.23
2018-12-03T08:43:09.696Z,6.15
2018-12-03T08:45:36.984Z,6.50
2018-12-03T08:48:04.284Z,6.35
2018-12-03T08:50:33.663Z,6.20
2018-12-03T08:53:00.991Z,6.50
2018-12-03T08:55:28.697Z,7.35
2018-12-03T08:57:56.108Z,6.25
2018-12-03T09:00:25.120Z,6.00
2018-12-03T09:02:59.192Z,6.72
2018-12-03T09:05:28.409Z,6.45
2018-12-03T09:07:55.663Z,6.53
2018-12-03T09:10:23.000Z,6.08
2018-12-03T09:12:50.310Z,5.22
2018-12-03T09:15:17.615Z,4.90
2018-12-03T09:17:44.949Z,5.58
2018-12-03T09:20:12.218Z,5.80
2018-12-03T09:22:39.543Z,5.70
2018-12-03T09:25:08.958Z,5.90
2018-12-03T09:27:36.265Z,5.17
2018-12-03T09:30:03.592Z,4.85
2018-12-03T09:32:32.816Z,4.80
2018-12-03T09:35:02.321Z,4.90
2018-12-03T09:37:29.627Z,4.33
2018-12-03T09:39:56.896Z,5.10
2018-12-03T09:42:28.755Z,5.28
2018-12-03T09:44:56.093Z,5.62
2018-12-03T09:47:23.456Z,5.50
2018-12-03T09:49:50.767Z,6.72
2018-12-03T09:52:18.065Z,5.45
2018-12-03T09:54:45.332Z,6.05
2018-12-03T09:57:12.600Z,6.20
2018-12-03T09:59:39.889Z,5.83
2018-12-03T10:02:07.199Z,6.60
2018-12-03T10:04:39.900Z,5.17
2018-12-03T10:07:07.188Z,6.72
2018-12-03T10:09:36.345Z,6.22
2018-12-03T10:12:03.669Z,5.97
2018-12-03T10:14:30.964Z,5.33
2018-12-03T10:16:58.251Z,5.40
2018-12-03T10:19:25.553Z,5.55
2018-12-03T10:21:52.914Z,5.65
2018-12-03T10:24:20.160Z,5.60
2018-12-03T10:26:47.445Z,4.70
2018-12-03T10:29:15.715Z,5.72
2018-12-03T10:31:43.083Z,5.60
2018-12-03T10:34:12.654Z,5.78
2018-12-03T10:36:40.840Z,5.45
2018-12-03T10:39:10.892Z,5.20
2018-12-03T10:41:38.829Z,4.97
2018-12-03T10:44:06.147Z,5.53
2018-12-03T10:46:33.428Z,5.62
2018-12-03T10:49:02.175Z,6.58
2018-12-03T10:51:29.367Z,6.10
2018-12-03T10:53:56.702Z,5.65
2018-12-03T10:56:23.997Z,6.97
2018-12-03T10:58:51.310Z,6.53
2018-12-03T11:01:23.873Z,7.30
2018-12-03T11:03:56.582Z,7.30
2018-12-03T11:06:24.465Z,6.97
2018-12-03T11:08:51.759Z,7.40
2018-12-03T11:11:19.300Z,6.25
2018-12-03T11:13:46.610Z,6.20
2018-12-03T11:16:19.365Z,6.40
2018-12-03T11:18:48.728Z,5.80
2018-12-03T11:21:16.050Z,5.80
2018-12-03T11:23:43.362Z,6.95
2018-12-03T11:26:10.680Z,5.55
2018-12-03T11:28:40.123Z,5.95
2018-12-03T11:31:08.595Z,5.85
2018-12-03T11:33:35.917Z,6.28
2018-12-03T11:36:03.239Z,6.00
2018-12-03T11:38:32.245Z,5.08
2018-12-03T11:40:59.533Z,5.65
2018-12-03T11:43:27.691Z,5.72
2018-12-03T11:45:55.011Z,5.72
2018-12-03T11:48:22.403Z,5.83
2018-12-03T11:50:49.669Z,5.92
2018-12-03T11:53:18.320Z,5.10
2018-12-03T11:55:44.680Z,6.58
2018-12-03T11:58:11.979Z,5.53
2018-12-03T12:00:39.395Z,5.80
2018-12-03T12:03:06.692Z,6.42
2018-12-03T12:05:33.995Z,5.40
2018-12-03T12:08:01.298Z,6.08
2018-12-03T12:10:28.565Z,5.78
2018-12-03T12:12:55.842Z,6.22
2018-12-03T12:15:23.783Z,5.60
2018-12-03T12:17:51.129Z,6.40
2018-12-03T12:20:18.427Z,6.45
2018-12-03T12:22:45.852Z,6.25
2018-12-03T12:25:13.240Z,6.47
2018-12-03T12:27:42.628Z,6.30
2018-12-03T12:30:12.820Z,5.70
2018-12-03T12:32:40.078Z,5.75
2018-12-03T12:35:07.697Z,5.33
2018-12-03T12:37:35.037Z,5.78
2018-12-03T12:40:02.353Z,5.35
2018-12-03T12:42:31.916Z,5.83
2018-12-03T12:44:57.083Z,6.25
2018-12-03T12:47:24.353Z,5.85
2018-12-03T12:49:51.660Z,6.20
2018-12-03T12:52:18.912Z,5.35
2018-12-03T12:54:46.313Z,5.58
2018-12-03T12:57:13.664Z,5.92
2018-12-03T12:59:40.964Z,5.78
2018-12-03T13:02:09.102Z,5.15
2018-12-03T13:04:36.362Z,4.35
2018-12-03T13:07:03.692Z,5.87
2018-12-03T13:09:31.018Z,5.20
2018-12-03T13:11:58.326Z,5.45
2018-12-03T13:14:25.607Z,5.75
2018-12-03T13:16:52.907Z,6.40
2018-12-03T13:19:20.177Z,5.40
2018-12-03T13:21:47.460Z,5.05
2018-12-03T13:24:14.727Z,6.95
2018-12-03T13:26:42.464Z,5.47
2018-12-03T13:29:09.855Z,4.75
2018-12-03T13:31:37.188Z,4.40
2018-12-03T13:34:04.852Z,4.70
2018-12-03T13:36:32.103Z,4.92
2018-12-03T13:38:59.394Z,5.30
2018-12-03T13:41:26.775Z,4.78
2018-12-03T13:43:54.069Z,5.58
2018-12-03T13:46:21.370Z,5.20
2018-12-03T13:48:48.682Z,5.22
2018-12-03T13:51:15.972Z,4.75
2018-12-03T13:53:43.322Z,5.10
2018-12-03T13:56:10.641Z,4.87
2018-12-03T13:58:38.001Z,4.33
2018-12-03T14:01:05.407Z,4.60
2018-12-03T14:03:33.877Z,4.47
2018-12-03T14:06:06.837Z,4.87
2018-12-03T14:08:47.960Z,4.22
2018-12-03T14:11:16.900Z,5.17
2018-12-03T14:13:50.343Z,5.00
2018-12-03T14:16:21.469Z,5.65
2018-12-03T14:18:53.688Z,5.75
2018-12-03T14:21:23.517Z,4.95
2018-12-03T14:23:51.972Z,4.67
2018-12-03T14:26:19.333Z,5.28
2018-12-03T14:28:46.625Z,5.00
2018-12-03T14:31:13.986Z,4.40
2018-12-03T14:33:41.264Z,4.62
2018-12-03T14:36:08.592Z,4.62
2018-12-03T14:38:35.856Z,4.55
2018-12-03T14:41:03.184Z,4.10
2018-12-03T14:43:30.452Z,4.50
2018-12-03T14:45:57.756Z,5.47
2018-12-03T14:48:25.066Z,4.10
2018-12-03T14:50:53.182Z,4.40
2018-12-03T14:53:20.477Z,3.40
2018-12-03T14:55:47.878Z,3.85
2018-12-03T14:58:15.158Z,4.95
2018-12-03T15:00:42.500Z,3.50
2018-12-03T15:03:09.800Z,4.10
2018-12-03T15:05:37.116Z,4.12
2018-12-03T15:08:04.412Z,4.25
2018-12-03T15:10:31.730Z,3.72
2018-12-03T15:12:59.440Z,3.60
2018-12-03T15:15:26.741Z,3.47
2018-12-03T15:17:54.044Z,3.20
2018-12-03T15:20:21.361Z,3.98
2018-12-03T15:22:48.652Z,3.20
2018-12-03T15:25:15.987Z,3.17
2018-12-03T15:27:43.284Z,2.98
2018-12-03T15:30:10.963Z,3.00
2018-12-03T15:32:38.297Z,3.27
2018-12-03T15:35:06.806Z,3.60
2018-12-03T15:37:34.048Z,3.35
2018-12-03T15:40:01.524Z,3.52
2018-12-03T15:42:28.818Z,3.80
2018-12-03T15:44:56.133Z,2.92
2018-12-03T15:47:23.561Z,3.85
2018-12-03T15:49:50.864Z,3.42
2018-12-03T15:52:18.149Z,4.15
2018-12-03T15:54:45.484Z,4.65
2018-12-03T15:57:12.761Z,4.25
2018-12-03T15:59:40.044Z,4.05
2018-12-03T16:02:07.394Z,4.37
2018-12-03T16:04:34.690Z,4.22
2018-12-03T16:07:02.275Z,4.90
2018-12-03T16:09:29.613Z,5.40
2018-12-03T16:11:56.886Z,6.55
2018-12-03T16:14:24.220Z,6.15
2018-12-03T16:16:51.503Z,6.10
2018-12-03T16:19:18.820Z,6.70
2018-12-03T16:21:46.168Z,6.95
2018-12-03T16:24:13.480Z,7.42
2018-12-03T16:26:40.793Z,6.90
2018-12-03T16:29:08.101Z,7.58
2018-12-03T16:31:35.415Z,7.78
2018-12-03T16:34:02.732Z,6.90
2018-12-03T16:36:30.359Z,6.95
2018-12-03T16:38:57.700Z,7.03
2018-12-03T16:41:25.033Z,7.30
2018-12-03T16:43:52.332Z,7.15
2018-12-03T16:46:19.722Z,7.03
2018-12-03T16:48:47.025Z,6.83
2018-12-03T16:51:14.360Z,7.20
2018-12-03T16:53:41.625Z,6.37
2018-12-03T16:56:08.968Z,6.30
2018-12-03T16:58:36.233Z,7.20
2018-12-03T17:01:03.547Z,6.97
2018-12-03T17:03:30.898Z,7.15
2018-12-03T17:05:58.181Z,5.72
2018-12-03T17:08:25.492Z,6.45
2018-12-03T17:10:52.956Z,6.15
2018-12-03T17:13:20.308Z,6.10
2018-12-03T17:15:47.725Z,6.92
2018-12-03T17:18:15.017Z,6.20
2018-12-03T17:20:50.825Z,5.83
2018-12-03T17:23:23.663Z,6.10
2018-12-03T17:25:51.275Z,5.90
2018-12-03T17:28:18.577Z,6.15
2018-12-03T17:30:45.844Z,6.70
2018-12-03T17:33:13.156Z,6.45
2018-12-03T17:35:40.469Z,5.47
2018-12-03T17:38:07.831Z,6.78
2018-12-03T17:40:35.181Z,6.35
2018-12-03T17:43:02.464Z,6.95
2018-12-03T17:45:29.778Z,6.87
2018-12-03T17:47:57.068Z,6.37
2018-12-03T17:50:24.483Z,6.17
2018-12-03T17:52:51.823Z,6.00
2018-12-03T17:55:19.182Z,5.97
2018-12-03T17:57:46.480Z,5.15
2018-12-03T18:00:14.203Z,6.10
2018-12-03T18:02:41.524Z,5.75
2018-12-03T18:05:08.933Z,5.25
2018-12-03T18:07:36.259Z,5.65
2018-12-03T18:10:03.915Z,4.10
2018-12-03T18:12:31.176Z,5.58
2018-12-03T18:14:58.524Z,4.90
2018-12-03T18:17:25.877Z,5.80
2018-12-03T18:19:53.249Z,5.50
2018-12-03T18:22:20.644Z,6.30
2018-12-03T18:24:48.069Z,6.50
2018-12-03T18:27:15.455Z,7.53
2018-12-03T18:29:42.880Z,8.25
2018-12-03T18:32:10.733Z,9.40
2018-12-03T18:34:38.097Z,10.05
2018-12-03T18:37:05.495Z,10.50
2018-12-03T18:39:32.921Z,10.00
2018-12-03T18:42:54.536Z,12.50
2018-12-03T18:45:21.868Z,11.63
2018-12-03T18:47:49.263Z,10.80
2018-12-03T18:50:18.308Z,9.60
2018-12-03T18:52:45.653Z,9.58
2018-12-03T18:55:12.965Z,9.70
2018-12-03T18:57:40.476Z,9.33
2018-12-03T19:00:10.379Z,7.97
2018-12-03T19:02:37.762Z,8.25
2018-12-03T19:05:05.282Z,8.93
2018-12-03T19:07:32.641Z,7.50
2018-12-03T19:10:00.025Z,7.22
2018-12-03T19:12:27.363Z,7.85
2018-12-03T19:23:18.114Z,7.17
2018-12-03T19:25:45.485Z,7.20
2018-12-03T19:28:12.846Z,8.55
2018-12-03T19:30:40.249Z,7.25
2018-12-03T19:33:07.580Z,7.00
2018-12-03T19:35:34.969Z,8.95
2018-12-03T19:38:02.393Z,6.62
2018-12-03T19:40:29.712Z,7.67
2018-12-03T19:42:57.063Z,8.00
2018-12-03T19:45:25.988Z,7.28
2018-12-03T19:47:53.318Z,8.05
2018-12-03T19:50:20.803Z,7.05
2018-12-03T19:52:49.313Z,7.72
2018-12-03T19:55:16.780Z,7.55
2018-12-03T19:57:46.668Z,8.28
2018-12-03T20:00:14.881Z,8.73
2018-12-03T20:02:42.349Z,8.40
2018-12-03T20:05:15.125Z,7.78
2018-12-03T20:07:42.515Z,7.53
2018-12-03T20:10:09.939Z,8.60
2018-12-03T20:12:37.293Z,7.60
2018-12-03T20:15:05.525Z,7.60
2018-12-03T20:20:24.302Z,7.35
2018-12-03T20:22:55.088Z,7.85
2018-12-03T20:25:23.970Z,8.53
2018-12-03T20:27:54.832Z,8.58
2018-12-03T20:30:27.894Z,8.90
2018-12-03T20:32:58.844Z,9.68
2018-12-03T20:35:31.110Z,9.10
2018-12-03T20:38:02.189Z,8.08
2018-12-03T20:40:32.098Z,9.30
2018-12-03T20:43:02.237Z,8.33
2018-12-03T20:45:34.352Z,9.10
2018-12-03T20:48:01.866Z,9.10
2018-12-03T20:50:34.478Z,9.93
2018-12-03T20:53:01.826Z,8.48
2018-12-03T20:55:34.422Z,9.95
2018-12-03T20:58:01.777Z,8.70
2018-12-03T21:00:29.158Z,10.80
2018-12-03T21:02:57.889Z,10.08
2018-12-03T21:05:25.636Z,9.63
2018-12-03T21:07:53.043Z,11.08
2018-12-03T21:10:20.410Z,10.20
2018-12-03T21:12:47.828Z,10.75
2018-12-03T21:15:15.255Z,12.58
2018-12-03T21:17:42.659Z,12.50
2018-12-03T21:20:17.614Z,12.70
2018-12-03T21:22:44.950Z,12.78
2018-12-03T21:25:12.362Z,13.30
2018-12-03T21:27:39.904Z,13.00
2018-12-03T21:30:08.390Z,12.65
2018-12-03T21:32:35.789Z,12.80
2018-12-03T21:35:03.544Z,13.32
2018-12-03T21:37:31.052Z,12.35
2018-12-03T21:39:58.447Z,12.95
2018-12-03T21:42:25.908Z,12.43
2018-12-03T21:44:54.724Z,12.95
2018-12-03T21:47:22.104Z,13.58
2018-12-03T21:49:49.568Z,12.68
2018-12-03T21:52:16.903Z,12.85
2018-12-03T21:54:44.228Z,11.63
2018-12-03T21:57:11.612Z,10.93
2018-12-03T21:59:38.984Z,13.25
2018-12-03T22:02:06.360Z,11.85
2018-12-03T22:04:33.690Z,11.63
2018-12-03T22:07:01.177Z,11.10
2018-12-03T22:09:29.740Z,12.70
2018-12-03T22:11:57.133Z,11.90
2018-12-03T22:14:24.402Z,11.25
2018-12-03T22:16:51.801Z,12.85
2018-12-03T22:19:19.134Z,11.60
2018-12-03T22:21:47.081Z,11.78
2018-12-03T22:24:14.422Z,12.03
2018-12-03T22:26:41.735Z,12.15
2018-12-03T22:37:32.615Z,10.72
2018-12-03T22:39:59.954Z,11.60
2018-12-03T22:42:27.283Z,11.83
2018-12-03T22:44:54.689Z,10.75
2018-12-03T22:47:22.031Z,11.00
2018-12-03T22:49:49.425Z,11.45
2018-12-03T22:52:17.549Z,10.85
2018-12-03T22:54:44.925Z,15.35
2018-12-03T22:57:12.233Z,10.25
2018-12-03T22:59:39.547Z,12.07
2018-12-03T23:02:06.957Z,8.35
2018-12-03T23:04:39.130Z,5.40
2018-12-03T23:07:06.460Z,4.17
2018-12-03T23:09:34.097Z,4.25
2018-12-03T23:12:01.458Z,3.95
2018-12-03T23:14:28.824Z,3.10
2018-12-03T23:16:56.180Z,2.62
2018-12-03T23:19:23.577Z,2.77
2018-12-03T23:21:50.904Z,2.92
2018-12-03T23:24:18.328Z,3.17
2018-12-03T23:26:45.665Z,2.80
2018-12-03T23:37:38.932Z,4.70
2018-12-03T23:40:06.359Z,3.80
2018-12-03T23:42:33.805Z,4.22
2018-12-03T23:45:01.126Z,4.55
2018-12-03T23:47:28.432Z,5.15
2018-12-03T23:49:55.754Z,4.80
2018-12-03T23:52:23.064Z,4.10
2018-12-03T23:54:50.368Z,3.27
2018-12-03T23:57:17.684Z,3.00
2018-12-03T23:59:47.111Z,2.37
